sensor_id;sensor_type;location;lat;lon;timestamp;P1;durP1;ratioP1;P2;durP2;ratioP2
26698;SDS011;14313;50.892;13.756;2022-10-17T03:01:34;7.10;;;1.60;;
26698;SDS011;14313;50.892;13.756;2022-10-17T03:04:04;5.07;;;1.85;;
26698;SDS011;14313;50.892;13.756;2022-10-17T03:06:30;5.45;;;1.67;;
26698;SDS011;14313;50.892;13.756;2022-10-17T03:08:56;8.00;;;1.80;;
26698;SDS011;14313;50.892;13.756;2022-10-17T03:11:21;2.67;;;1.20;;
26698;SDS011;14313;50.892;13.756;2022-10-17T03:13:46;7.28;;;2.00;;
26698;SDS011;14313;50.892;13.756;2022-10-17T03:16:12;5.20;;;1.58;;
26698;SDS011;14313;50.892;13.756;2022-10-17T03:18:37;4.80;;;1.50;;
26698;SDS011;14313;50.892;13.756;2022-10-17T03:21:03;6.80;;;1.42;;
26698;SDS011;14313;50.892;13.756;2022-10-17T03:23:28;8.20;;;1.35;;
26698;SDS011;14313;50.892;13.756;2022-10-17T03:25:54;9.07;;;1.48;;
26698;SDS011;14313;50.892;13.756;2022-10-17T03:28:19;11.27;;;1.73;;
26698;SDS011;14313;50.892;13.756;2022-10-17T03:30:44;7.68;;;1.45;;
26698;SDS011;14313;50.892;13.756;2022-10-17T03:33:10;3.58;;;1.73;;
26698;SDS011;14313;50.892;13.756;2022-10-17T03:35:36;4.55;;;1.20;;
26698;SDS011;14313;50.892;13.756;2022-10-17T03:38:03;12.38;;;1.42;;
26698;SDS011;14313;50.892;13.756;2022-10-17T03:40:28;8.02;;;1.30;;
26698;SDS011;14313;50.892;13.756;2022-10-17T03:42:54;10.68;;;1.58;;
26698;SDS011;14313;50.892;13.756;2022-10-17T03:45:19;10.75;;;2.42;;
26698;SDS011;14313;50.892;13.756;2022-10-17T03:47:46;5.00;;;1.23;;
26698;SDS011;14313;50.892;13.756;2022-10-17T03:50:11;4.05;;;1.67;;
26698;SDS011;14313;50.892;13.756;2022-10-17T03:52:37;5.45;;;1.50;;
26698;SDS011;14313;50.892;13.756;2022-10-17T03:55:03;2.25;;;1.33;;
26698;SDS011;14313;50.892;13.756;2022-10-17T03:57:29;3.47;;;1.52;;
26698;SDS011;14313;50.892;13.756;2022-10-17T03:59:54;5.95;;;1.60;;
26698;SDS011;14313;50.892;13.756;2022-10-17T04:02:20;5.18;;;1.58;;
26698;SDS011;14313;50.892;13.756;2022-10-17T04:04:45;10.02;;;1.60;;
26698;SDS011;14313;50.892;13.756;2022-10-17T04:07:10;6.63;;;1.67;;
26698;SDS011;14313;50.892;13.756;2022-10-17T04:09:40;9.63;;;1.75;;
26698;SDS011;14313;50.892;13.756;2022-10-17T04:12:10;3.22;;;1.60;;
26698;SDS011;14313;50.892;13.756;2022-10-17T04:14:36;12.98;;;2.17;;
26698;SDS011;14313;50.892;13.756;2022-10-17T04:17:02;8.43;;;2.45;;
26698;SDS011;14313;50.892;13.756;2022-10-17T04:19:28;2.97;;;1.67;;
26698;SDS011;14313;50.892;13.756;2022-10-17T04:21:54;8.02;;;1.80;;
26698;SDS011;14313;50.892;13.756;2022-10-17T04:24:20;3.95;;;1.70;;
26698;SDS011;14313;50.892;13.756;2022-10-17T04:26:57;5.10;;;1.83;;
26698;SDS011;14313;50.892;13.756;2022-10-17T04:29:27;8.45;;;2.03;;
26698;SDS011;14313;50.892;13.756;2022-10-17T04:32:00;7.68;;;2.20;;
26698;SDS011;14313;50.892;13.756;2022-10-17T04:34:32;4.57;;;1.85;;
26698;SDS011;14313;50.892;13.756;2022-10-17T04:36:57;5.57;;;2.30;;
26698;SDS011;14313;50.892;13.756;2022-10-17T04:39:23;9.40;;;2.55;;
26698;SDS011;14313;50.892;13.756;2022-10-17T04:41:49;5.18;;;2.15;;
26698;SDS011;14313;50.892;13.756;2022-10-17T04:44:14;14.80;;;7.50;;
26698;SDS011;14313;50.892;13.756;2022-10-17T04:46:46;11.35;;;6.32;;
26698;SDS011;14313;50.892;13.756;2022-10-17T04:49:11;9.90;;;3.85;;
26698;SDS011;14313;50.892;13.756;2022-10-17T04:51:39;13.73;;;4.40;;
26698;SDS011;14313;50.892;13.756;2022-10-17T04:54:12;11.43;;;4.80;;
26698;SDS011;14313;50.892;13.756;2022-10-17T04:56:41;21.98;;;5.47;;
26698;SDS011;14313;50.892;13.756;2022-10-17T04:59:06;16.95;;;5.05;;
26698;SDS011;14313;50.892;13.756;2022-10-17T05:01:32;14.60;;;4.70;;
26698;SDS011;14313;50.892;13.756;2022-10-17T05:03:58;10.55;;;3.47;;
26698;SDS011;14313;50.892;13.756;2022-10-17T05:06:23;14.98;;;3.88;;
26698;SDS011;14313;50.892;13.756;2022-10-17T05:09:18;12.60;;;4.45;;
26698;SDS011;14313;50.892;13.756;2022-10-17T05:11:44;10.40;;;3.40;;
26698;SDS011;14313;50.892;13.756;2022-10-17T05:14:11;6.63;;;3.63;;
26698;SDS011;14313;50.892;13.756;2022-10-17T05:16:36;9.27;;;4.25;;
26698;SDS011;14313;50.892;13.756;2022-10-17T05:19:02;25.27;;;13.43;;
26698;SDS011;14313;50.892;13.756;2022-10-17T05:21:33;20.92;;;10.20;;
26698;SDS011;14313;50.892;13.756;2022-10-17T05:24:03;16.35;;;9.63;;
26698;SDS011;14313;50.892;13.756;2022-10-17T05:26:31;13.77;;;7.03;;
26698;SDS011;14313;50.892;13.756;2022-10-17T05:28:58;10.70;;;5.50;;
26698;SDS011;14313;50.892;13.756;2022-10-17T05:31:30;12.93;;;5.82;;
26698;SDS011;14313;50.892;13.756;2022-10-17T05:33:59;12.60;;;5.63;;
26698;SDS011;14313;50.892;13.756;2022-10-17T05:36:26;8.02;;;4.97;;
26698;SDS011;14313;50.892;13.756;2022-10-17T05:38:52;11.18;;;5.30;;
26698;SDS011;14313;50.892;13.756;2022-10-17T05:41:17;11.05;;;5.75;;
26698;SDS011;14313;50.892;13.756;2022-10-17T05:43:43;11.65;;;5.32;;
26698;SDS011;14313;50.892;13.756;2022-10-17T05:46:11;10.40;;;5.57;;
26698;SDS011;14313;50.892;13.756;2022-10-17T05:48:37;7.75;;;5.38;;
26698;SDS011;14313;50.892;13.756;2022-10-17T05:51:04;12.35;;;9.52;;
26698;SDS011;14313;50.892;13.756;2022-10-17T05:53:38;8.35;;;6.65;;
26698;SDS011;14313;50.892;13.756;2022-10-17T05:56:09;11.95;;;6.38;;
26698;SDS011;14313;50.892;13.756;2022-10-17T05:58:39;11.07;;;6.22;;
26698;SDS011;14313;50.892;13.756;2022-10-17T06:01:08;16.73;;;6.82;;
26698;SDS011;14313;50.892;13.756;2022-10-17T06:03:34;17.42;;;7.05;;
26698;SDS011;14313;50.892;13.756;2022-10-17T06:06:07;11.75;;;7.28;;
26698;SDS011;14313;50.892;13.756;2022-10-17T06:08:36;14.93;;;7.65;;
26698;SDS011;14313;50.892;13.756;2022-10-17T06:11:03;17.70;;;8.90;;
26698;SDS011;14313;50.892;13.756;2022-10-17T06:13:29;16.73;;;7.13;;
26698;SDS011;14313;50.892;13.756;2022-10-17T06:15:56;12.70;;;6.35;;
26698;SDS011;14313;50.892;13.756;2022-10-17T06:18:22;11.95;;;6.78;;
26698;SDS011;14313;50.892;13.756;2022-10-17T06:20:48;9.63;;;6.20;;
26698;SDS011;14313;50.892;13.756;2022-10-17T06:23:15;20.75;;;11.25;;
26698;SDS011;14313;50.892;13.756;2022-10-17T06:26:07;12.95;;;8.43;;
26698;SDS011;14313;50.892;13.756;2022-10-17T06:28:33;15.88;;;8.07;;
26698;SDS011;14313;50.892;13.756;2022-10-17T06:31:04;16.98;;;9.20;;
26698;SDS011;14313;50.892;13.756;2022-10-17T06:33:30;17.88;;;8.45;;
26698;SDS011;14313;50.892;13.756;2022-10-17T06:35:55;19.77;;;7.53;;
26698;SDS011;14313;50.892;13.756;2022-10-17T06:38:22;14.07;;;7.18;;
26698;SDS011;14313;50.892;13.756;2022-10-17T06:40:50;29.80;;;13.18;;
26698;SDS011;14313;50.892;13.756;2022-10-17T06:43:18;15.85;;;8.85;;
26698;SDS011;14313;50.892;13.756;2022-10-17T06:45:55;15.30;;;9.32;;
26698;SDS011;14313;50.892;13.756;2022-10-17T06:48:35;8.15;;;5.78;;
26698;SDS011;14313;50.892;13.756;2022-10-17T06:51:27;14.00;;;7.35;;
26698;SDS011;14313;50.892;13.756;2022-10-17T06:53:55;14.93;;;10.75;;
26698;SDS011;14313;50.892;13.756;2022-10-17T06:56:41;12.90;;;6.97;;
26698;SDS011;14313;50.892;13.756;2022-10-17T06:59:27;16.05;;;9.40;;
26698;SDS011;14313;50.892;13.756;2022-10-17T07:02:04;16.95;;;6.82;;
26698;SDS011;14313;50.892;13.756;2022-10-17T07:04:30;12.95;;;5.45;;
26698;SDS011;14313;50.892;13.756;2022-10-17T07:06:55;10.60;;;5.15;;
26698;SDS011;14313;50.892;13.756;2022-10-17T07:09:24;7.60;;;4.07;;
26698;SDS011;14313;50.892;13.756;2022-10-17T07:11:51;6.10;;;4.22;;
26698;SDS011;14313;50.892;13.756;2022-10-17T07:14:17;7.65;;;4.93;;
26698;SDS011;14313;50.892;13.756;2022-10-17T07:16:42;8.73;;;6.20;;
26698;SDS011;14313;50.892;13.756;2022-10-17T07:19:14;20.02;;;12.55;;
26698;SDS011;14313;50.892;13.756;2022-10-17T07:21:39;25.95;;;13.02;;
26698;SDS011;14313;50.892;13.756;2022-10-17T07:24:07;13.38;;;9.02;;
26698;SDS011;14313;50.892;13.756;2022-10-17T07:26:32;24.00;;;8.25;;
26698;SDS011;14313;50.892;13.756;2022-10-17T07:28:59;14.43;;;8.40;;
26698;SDS011;14313;50.892;13.756;2022-10-17T07:31:31;17.27;;;9.57;;
26698;SDS011;14313;50.892;13.756;2022-10-17T07:33:58;13.15;;;9.00;;
26698;SDS011;14313;50.892;13.756;2022-10-17T07:36:24;17.58;;;11.35;;
26698;SDS011;14313;50.892;13.756;2022-10-17T07:38:49;16.77;;;10.85;;
26698;SDS011;14313;50.892;13.756;2022-10-17T07:41:16;18.08;;;10.10;;
26698;SDS011;14313;50.892;13.756;2022-10-17T07:43:44;15.77;;;9.70;;
26698;SDS011;14313;50.892;13.756;2022-10-17T07:46:09;30.48;;;18.08;;
26698;SDS011;14313;50.892;13.756;2022-10-17T07:48:36;13.15;;;9.02;;
26698;SDS011;14313;50.892;13.756;2022-10-17T07:51:03;12.85;;;7.28;;
26698;SDS011;14313;50.892;13.756;2022-10-17T07:53:30;12.40;;;7.38;;
26698;SDS011;14313;50.892;13.756;2022-10-17T07:55:55;9.70;;;6.82;;
26698;SDS011;14313;50.892;13.756;2022-10-17T07:58:20;7.68;;;5.53;;
26698;SDS011;14313;50.892;13.756;2022-10-17T08:00:46;10.20;;;6.30;;
26698;SDS011;14313;50.892;13.756;2022-10-17T08:03:13;8.07;;;5.50;;
26698;SDS011;14313;50.892;13.756;2022-10-17T08:05:38;9.32;;;6.07;;
26698;SDS011;14313;50.892;13.756;2022-10-17T08:08:03;9.43;;;6.55;;
26698;SDS011;14313;50.892;13.756;2022-10-17T08:10:29;8.02;;;6.20;;
26698;SDS011;14313;50.892;13.756;2022-10-17T08:12:55;7.68;;;6.25;;
26698;SDS011;14313;50.892;13.756;2022-10-17T08:15:21;8.52;;;5.93;;
26698;SDS011;14313;50.892;13.756;2022-10-17T08:17:48;10.85;;;5.53;;
26698;SDS011;14313;50.892;13.756;2022-10-17T08:20:13;12.10;;;5.63;;
26698;SDS011;14313;50.892;13.756;2022-10-17T08:22:39;10.27;;;4.55;;
26698;SDS011;14313;50.892;13.756;2022-10-17T08:25:04;9.05;;;4.72;;
26698;SDS011;14313;50.892;13.756;2022-10-17T08:27:31;7.72;;;4.93;;
26698;SDS011;14313;50.892;13.756;2022-10-17T08:29:57;5.10;;;3.70;;
26698;SDS011;14313;50.892;13.756;2022-10-17T08:32:24;11.07;;;4.00;;
26698;SDS011;14313;50.892;13.756;2022-10-17T08:34:51;7.10;;;4.22;;
26698;SDS011;14313;50.892;13.756;2022-10-17T08:37:17;8.95;;;4.90;;
26698;SDS011;14313;50.892;13.756;2022-10-17T08:39:43;11.35;;;5.30;;
26698;SDS011;14313;50.892;13.756;2022-10-17T08:45:07;8.10;;;5.53;;
26698;SDS011;14313;50.892;13.756;2022-10-17T08:47:45;7.97;;;6.03;;
26698;SDS011;14313;50.892;13.756;2022-10-17T08:50:26;7.47;;;5.68;;
26698;SDS011;14313;50.892;13.756;2022-10-17T08:52:58;12.68;;;6.38;;
26698;SDS011;14313;50.892;13.756;2022-10-17T08:55:37;10.05;;;6.90;;
26698;SDS011;14313;50.892;13.756;2022-10-17T08:58:14;9.70;;;7.18;;
26698;SDS011;14313;50.892;13.756;2022-10-17T09:00:49;10.95;;;7.07;;
26698;SDS011;14313;50.892;13.756;2022-10-17T09:03:24;12.75;;;6.82;;
26698;SDS011;14313;50.892;13.756;2022-10-17T09:11:32;8.75;;;7.40;;
26698;SDS011;14313;50.892;13.756;2022-10-17T09:19:35;8.23;;;6.82;;
26698;SDS011;14313;50.892;13.756;2022-10-17T09:22:05;11.35;;;8.82;;
26698;SDS011;14313;50.892;13.756;2022-10-17T09:24:45;11.48;;;7.82;;
26698;SDS011;14313;50.892;13.756;2022-10-17T09:29:50;10.50;;;7.82;;
26698;SDS011;14313;50.892;13.756;2022-10-17T09:32:24;10.20;;;7.30;;
26698;SDS011;14313;50.892;13.756;2022-10-17T09:34:50;13.30;;;7.40;;
26698;SDS011;14313;50.892;13.756;2022-10-17T09:37:17;11.05;;;8.15;;
26698;SDS011;14313;50.892;13.756;2022-10-17T09:39:43;11.32;;;8.82;;
26698;SDS011;14313;50.892;13.756;2022-10-17T09:42:11;11.18;;;8.35;;
26698;SDS011;14313;50.892;13.756;2022-10-17T09:44:46;17.50;;;9.30;;
26698;SDS011;14313;50.892;13.756;2022-10-17T09:49:47;11.05;;;8.52;;
26698;SDS011;14313;50.892;13.756;2022-10-17T09:52:14;11.75;;;9.85;;
26698;SDS011;14313;50.892;13.756;2022-10-17T09:54:44;14.18;;;10.07;;
26698;SDS011;14313;50.892;13.756;2022-10-17T09:57:15;10.00;;;7.90;;
26698;SDS011;14313;50.892;13.756;2022-10-17T09:59:45;13.20;;;8.32;;
26698;SDS011;14313;50.892;13.756;2022-10-17T10:02:20;8.73;;;7.82;;
26698;SDS011;14313;50.892;13.756;2022-10-17T10:04:51;8.27;;;7.03;;
26698;SDS011;14313;50.892;13.756;2022-10-17T10:07:16;11.25;;;6.85;;
26698;SDS011;14313;50.892;13.756;2022-10-17T10:09:45;12.00;;;8.40;;
26698;SDS011;14313;50.892;13.756;2022-10-17T10:12:16;11.38;;;7.95;;
26698;SDS011;14313;50.892;13.756;2022-10-17T10:14:53;14.55;;;8.32;;
26698;SDS011;14313;50.892;13.756;2022-10-17T10:17:38;10.60;;;7.55;;
26698;SDS011;14313;50.892;13.756;2022-10-17T10:23:11;7.90;;;7.10;;
26698;SDS011;14313;50.892;13.756;2022-10-17T10:25:48;11.38;;;7.50;;
26698;SDS011;14313;50.892;13.756;2022-10-17T10:28:18;10.07;;;7.53;;
26698;SDS011;14313;50.892;13.756;2022-10-17T10:30:46;10.25;;;7.30;;
26698;SDS011;14313;50.892;13.756;2022-10-17T10:33:13;8.48;;;7.68;;
26698;SDS011;14313;50.892;13.756;2022-10-17T10:35:39;12.95;;;6.93;;
26698;SDS011;14313;50.892;13.756;2022-10-17T10:38:12;9.02;;;7.88;;
26698;SDS011;14313;50.892;13.756;2022-10-17T10:40:44;12.68;;;6.80;;
26698;SDS011;14313;50.892;13.756;2022-10-17T10:43:23;10.52;;;7.70;;
26698;SDS011;14313;50.892;13.756;2022-10-17T10:45:54;7.38;;;6.60;;
26698;SDS011;14313;50.892;13.756;2022-10-17T10:56:29;9.63;;;6.55;;
26698;SDS011;14313;50.892;13.756;2022-10-17T11:04:25;7.00;;;6.40;;
26698;SDS011;14313;50.892;13.756;2022-10-17T11:07:04;10.43;;;8.20;;
26698;SDS011;14313;50.892;13.756;2022-10-17T11:12:42;8.43;;;7.60;;
26698;SDS011;14313;50.892;13.756;2022-10-17T11:18:02;12.25;;;8.90;;
26698;SDS011;14313;50.892;13.756;2022-10-17T11:23:07;10.52;;;8.13;;
26698;SDS011;14313;50.892;13.756;2022-10-17T11:25:55;8.73;;;7.85;;
26698;SDS011;14313;50.892;13.756;2022-10-17T11:28:23;10.60;;;7.32;;
26698;SDS011;14313;50.892;13.756;2022-10-17T11:30:59;7.90;;;6.90;;
26698;SDS011;14313;50.892;13.756;2022-10-17T11:33:33;7.35;;;6.10;;
26698;SDS011;14313;50.892;13.756;2022-10-17T11:36:13;8.23;;;6.68;;
26698;SDS011;14313;50.892;13.756;2022-10-17T11:38:48;9.95;;;6.03;;
26698;SDS011;14313;50.892;13.756;2022-10-17T11:41:19;5.95;;;5.30;;
26698;SDS011;14313;50.892;13.756;2022-10-17T11:43:57;6.20;;;5.60;;
26698;SDS011;14313;50.892;13.756;2022-10-17T11:46:28;5.47;;;4.85;;
26698;SDS011;14313;50.892;13.756;2022-10-17T11:51:41;14.75;;;6.47;;
26698;SDS011;14313;50.892;13.756;2022-10-17T11:54:15;6.93;;;6.05;;
26698;SDS011;14313;50.892;13.756;2022-10-17T11:57:08;7.30;;;6.10;;
26698;SDS011;14313;50.892;13.756;2022-10-17T12:08:09;8.13;;;7.32;;
26698;SDS011;14313;50.892;13.756;2022-10-17T12:10:44;10.40;;;7.15;;
26698;SDS011;14313;50.892;13.756;2022-10-17T12:15:54;14.48;;;12.95;;
26698;SDS011;14313;50.892;13.756;2022-10-17T12:18:22;11.65;;;9.05;;
26698;SDS011;14313;50.892;13.756;2022-10-17T12:20:54;11.80;;;9.55;;
26698;SDS011;14313;50.892;13.756;2022-10-17T12:23:25;16.17;;;9.13;;
26698;SDS011;14313;50.892;13.756;2022-10-17T12:25:59;14.85;;;9.77;;
26698;SDS011;14313;50.892;13.756;2022-10-17T12:28:30;16.00;;;10.25;;
26698;SDS011;14313;50.892;13.756;2022-10-17T12:31:03;12.65;;;11.35;;
26698;SDS011;14313;50.892;13.756;2022-10-17T12:44:06;17.15;;;12.52;;
26698;SDS011;14313;50.892;13.756;2022-10-17T12:54:42;21.33;;;14.05;;
26698;SDS011;14313;50.892;13.756;2022-10-17T12:57:14;20.88;;;16.00;;
26698;SDS011;14313;50.892;13.756;2022-10-17T12:59:48;28.23;;;15.68;;
26698;SDS011;14313;50.892;13.756;2022-10-17T13:02:21;24.83;;;16.70;;
26698;SDS011;14313;50.892;13.756;2022-10-17T13:04:49;22.35;;;15.55;;
26698;SDS011;14313;50.892;13.756;2022-10-17T13:07:27;20.58;;;16.13;;
26698;SDS011;14313;50.892;13.756;2022-10-17T13:09:53;20.90;;;16.08;;
26698;SDS011;14313;50.892;13.756;2022-10-17T13:12:22;22.05;;;16.70;;
26698;SDS011;14313;50.892;13.756;2022-10-17T13:14:51;21.02;;;16.92;;
26698;SDS011;14313;50.892;13.756;2022-10-17T13:17:25;26.48;;;17.15;;
26698;SDS011;14313;50.892;13.756;2022-10-17T13:19:53;25.77;;;17.85;;
26698;SDS011;14313;50.892;13.756;2022-10-17T13:22:21;21.20;;;17.63;;
26698;SDS011;14313;50.892;13.756;2022-10-17T13:24:48;25.10;;;16.95;;
26698;SDS011;14313;50.892;13.756;2022-10-17T13:29:57;26.73;;;18.88;;
26698;SDS011;14313;50.892;13.756;2022-10-17T13:32:25;25.02;;;17.95;;
26698;SDS011;14313;50.892;13.756;2022-10-17T13:35:08;24.30;;;18.60;;
26698;SDS011;14313;50.892;13.756;2022-10-17T13:37:36;24.75;;;19.00;;
26698;SDS011;14313;50.892;13.756;2022-10-17T13:40:04;25.05;;;19.00;;
26698;SDS011;14313;50.892;13.756;2022-10-17T13:42:35;25.75;;;21.63;;
26698;SDS011;14313;50.892;13.756;2022-10-17T13:45:03;25.25;;;20.42;;
26698;SDS011;14313;50.892;13.756;2022-10-17T13:47:40;25.17;;;20.33;;
26698;SDS011;14313;50.892;13.756;2022-10-17T13:50:06;27.23;;;21.10;;
26698;SDS011;14313;50.892;13.756;2022-10-17T13:52:32;23.73;;;19.85;;
26698;SDS011;14313;50.892;13.756;2022-10-17T13:55:16;26.23;;;20.95;;
26698;SDS011;14313;50.892;13.756;2022-10-17T13:57:44;29.70;;;22.92;;
26698;SDS011;14313;50.892;13.756;2022-10-17T14:00:19;33.20;;;23.63;;
26698;SDS011;14313;50.892;13.756;2022-10-17T14:02:46;36.75;;;24.08;;
26698;SDS011;14313;50.892;13.756;2022-10-17T14:05:14;33.65;;;24.15;;
26698;SDS011;14313;50.892;13.756;2022-10-17T14:07:43;32.72;;;23.23;;
26698;SDS011;14313;50.892;13.756;2022-10-17T14:10:22;28.48;;;22.23;;
26698;SDS011;14313;50.892;13.756;2022-10-17T14:12:52;36.47;;;23.08;;
26698;SDS011;14313;50.892;13.756;2022-10-17T14:15:18;27.42;;;21.17;;
26698;SDS011;14313;50.892;13.756;2022-10-17T14:17:53;33.40;;;22.67;;
26698;SDS011;14313;50.892;13.756;2022-10-17T14:20:20;33.70;;;23.52;;
26698;SDS011;14313;50.892;13.756;2022-10-17T14:22:47;29.10;;;22.48;;
26698;SDS011;14313;50.892;13.756;2022-10-17T14:25:26;28.60;;;21.73;;
26698;SDS011;14313;50.892;13.756;2022-10-17T14:27:52;34.00;;;23.95;;
26698;SDS011;14313;50.892;13.756;2022-10-17T14:32:50;37.17;;;24.42;;
26698;SDS011;14313;50.892;13.756;2022-10-17T14:35:20;33.63;;;23.80;;
26698;SDS011;14313;50.892;13.756;2022-10-17T14:37:47;42.20;;;24.27;;
26698;SDS011;14313;50.892;13.756;2022-10-17T14:40:16;35.58;;;24.25;;
26698;SDS011;14313;50.892;13.756;2022-10-17T14:42:44;31.27;;;22.02;;
26698;SDS011;14313;50.892;13.756;2022-10-17T14:45:12;36.65;;;22.55;;
26698;SDS011;14313;50.892;13.756;2022-10-17T14:47:49;33.05;;;21.65;;
26698;SDS011;14313;50.892;13.756;2022-10-17T14:50:20;35.40;;;24.13;;
26698;SDS011;14313;50.892;13.756;2022-10-17T14:53:00;38.13;;;23.58;;
26698;SDS011;14313;50.892;13.756;2022-10-17T14:55:31;33.50;;;23.42;;
26698;SDS011;14313;50.892;13.756;2022-10-17T14:57:59;35.67;;;24.50;;
26698;SDS011;14313;50.892;13.756;2022-10-17T15:00:25;38.95;;;24.55;;
26698;SDS011;14313;50.892;13.756;2022-10-17T15:02:51;42.03;;;26.10;;
26698;SDS011;14313;50.892;13.756;2022-10-17T15:05:18;40.05;;;24.65;;
26698;SDS011;14313;50.892;13.756;2022-10-17T15:07:45;40.83;;;26.30;;
26698;SDS011;14313;50.892;13.756;2022-10-17T15:10:19;41.35;;;25.63;;
26698;SDS011;14313;50.892;13.756;2022-10-17T15:12:49;43.83;;;25.98;;
26698;SDS011;14313;50.892;13.756;2022-10-17T15:15:15;38.22;;;25.58;;
26698;SDS011;14313;50.892;13.756;2022-10-17T15:17:40;38.17;;;26.10;;
26698;SDS011;14313;50.892;13.756;2022-10-17T15:20:10;40.33;;;25.85;;
26698;SDS011;14313;50.892;13.756;2022-10-17T15:22:40;34.28;;;24.08;;
26698;SDS011;14313;50.892;13.756;2022-10-17T15:25:05;34.83;;;23.60;;
26698;SDS011;14313;50.892;13.756;2022-10-17T15:27:31;38.97;;;26.27;;
26698;SDS011;14313;50.892;13.756;2022-10-17T15:29:56;37.20;;;25.40;;
26698;SDS011;14313;50.892;13.756;2022-10-17T15:32:22;41.75;;;28.17;;
26698;SDS011;14313;50.892;13.756;2022-10-17T15:34:47;35.40;;;25.63;;
26698;SDS011;14313;50.892;13.756;2022-10-17T15:37:17;37.13;;;25.70;;
26698;SDS011;14313;50.892;13.756;2022-10-17T15:39:49;42.10;;;27.63;;
26698;SDS011;14313;50.892;13.756;2022-10-17T15:42:20;43.97;;;26.92;;
26698;SDS011;14313;50.892;13.756;2022-10-17T15:44:47;61.33;;;25.98;;
26698;SDS011;14313;50.892;13.756;2022-10-17T15:47:18;45.47;;;24.88;;
26698;SDS011;14313;50.892;13.756;2022-10-17T15:49:57;43.22;;;24.95;;
26698;SDS011;14313;50.892;13.756;2022-10-17T15:52:24;37.65;;;23.67;;
26698;SDS011;14313;50.892;13.756;2022-10-17T15:54:51;38.25;;;23.55;;
26698;SDS011;14313;50.892;13.756;2022-10-17T15:57:20;38.47;;;24.58;;
26698;SDS011;14313;50.892;13.756;2022-10-17T15:59:48;39.20;;;23.73;;
26698;SDS011;14313;50.892;13.756;2022-10-17T16:02:15;41.72;;;23.55;;
26698;SDS011;14313;50.892;13.756;2022-10-17T16:04:42;53.40;;;25.15;;
26698;SDS011;14313;50.892;13.756;2022-10-17T16:07:08;43.08;;;24.67;;
26698;SDS011;14313;50.892;13.756;2022-10-17T16:09:34;44.40;;;24.50;;
26698;SDS011;14313;50.892;13.756;2022-10-17T16:12:01;35.17;;;23.55;;
26698;SDS011;14313;50.892;13.756;2022-10-17T16:14:27;40.78;;;25.50;;
26698;SDS011;14313;50.892;13.756;2022-10-17T16:16:53;35.53;;;24.30;;
26698;SDS011;14313;50.892;13.756;2022-10-17T16:19:18;41.95;;;25.02;;
26698;SDS011;14313;50.892;13.756;2022-10-17T16:21:43;41.63;;;25.15;;
26698;SDS011;14313;50.892;13.756;2022-10-17T16:24:09;41.67;;;25.15;;
26698;SDS011;14313;50.892;13.756;2022-10-17T16:26:36;40.45;;;25.33;;
26698;SDS011;14313;50.892;13.756;2022-10-17T16:29:02;39.97;;;25.65;;
26698;SDS011;14313;50.892;13.756;2022-10-17T16:31:39;40.80;;;26.25;;
26698;SDS011;14313;50.892;13.756;2022-10-17T16:34:08;45.40;;;26.42;;
26698;SDS011;14313;50.892;13.756;2022-10-17T16:36:35;40.00;;;27.33;;
26698;SDS011;14313;50.892;13.756;2022-10-17T16:39:00;44.90;;;29.00;;
26698;SDS011;14313;50.892;13.756;2022-10-17T16:41:30;45.22;;;29.80;;
26698;SDS011;14313;50.892;13.756;2022-10-17T16:43:58;47.30;;;30.63;;
26698;SDS011;14313;50.892;13.756;2022-10-17T16:46:25;62.75;;;41.25;;
26698;SDS011;14313;50.892;13.756;2022-10-17T16:48:51;64.50;;;45.20;;
26698;SDS011;14313;50.892;13.756;2022-10-17T16:51:17;55.55;;;37.55;;
26698;SDS011;14313;50.892;13.756;2022-10-17T16:53:44;51.92;;;35.28;;
26698;SDS011;14313;50.892;13.756;2022-10-17T16:56:21;62.05;;;38.95;;
26698;SDS011;14313;50.892;13.756;2022-10-17T16:58:48;60.60;;;39.03;;
26698;SDS011;14313;50.892;13.756;2022-10-17T17:01:15;67.22;;;38.08;;
26698;SDS011;14313;50.892;13.756;2022-10-17T17:03:43;61.13;;;38.75;;
26698;SDS011;14313;50.892;13.756;2022-10-17T17:06:13;56.80;;;34.72;;
26698;SDS011;14313;50.892;13.756;2022-10-17T17:08:41;54.22;;;33.60;;
26698;SDS011;14313;50.892;13.756;2022-10-17T17:11:08;59.53;;;36.83;;
26698;SDS011;14313;50.892;13.756;2022-10-17T17:13:34;56.35;;;33.70;;
26698;SDS011;14313;50.892;13.756;2022-10-17T17:16:03;57.53;;;34.33;;
26698;SDS011;14313;50.892;13.756;2022-10-17T17:18:31;56.33;;;36.75;;
26698;SDS011;14313;50.892;13.756;2022-10-17T17:21:00;56.03;;;37.92;;
26698;SDS011;14313;50.892;13.756;2022-10-17T17:23:27;51.55;;;32.83;;
26698;SDS011;14313;50.892;13.756;2022-10-17T17:25:59;54.97;;;34.65;;
26698;SDS011;14313;50.892;13.756;2022-10-17T17:28:26;52.30;;;34.90;;
26698;SDS011;14313;50.892;13.756;2022-10-17T17:30:52;48.45;;;29.45;;
26698;SDS011;14313;50.892;13.756;2022-10-17T17:33:19;53.05;;;29.63;;
26698;SDS011;14313;50.892;13.756;2022-10-17T17:35:45;46.72;;;27.25;;
26698;SDS011;14313;50.892;13.756;2022-10-17T17:38:11;46.33;;;28.35;;
26698;SDS011;14313;50.892;13.756;2022-10-17T17:40:42;48.20;;;27.52;;
26698;SDS011;14313;50.892;13.756;2022-10-17T17:43:08;42.40;;;27.20;;
26698;SDS011;14313;50.892;13.756;2022-10-17T17:45:33;41.03;;;27.05;;
26698;SDS011;14313;50.892;13.756;2022-10-17T17:47:59;49.13;;;27.10;;
26698;SDS011;14313;50.892;13.756;2022-10-17T17:50:24;44.50;;;26.05;;
26698;SDS011;14313;50.892;13.756;2022-10-17T17:52:49;38.08;;;25.33;;
26698;SDS011;14313;50.892;13.756;2022-10-17T17:55:15;34.67;;;24.33;;
26698;SDS011;14313;50.892;13.756;2022-10-17T17:57:40;41.65;;;25.77;;
26698;SDS011;14313;50.892;13.756;2022-10-17T18:00:06;39.65;;;26.17;;
26698;SDS011;14313;50.892;13.756;2022-10-17T18:02:32;36.45;;;24.48;;
26698;SDS011;14313;50.892;13.756;2022-10-17T18:04:57;43.22;;;25.38;;
26698;SDS011;14313;50.892;13.756;2022-10-17T18:07:23;35.83;;;25.30;;
26698;SDS011;14313;50.892;13.756;2022-10-17T18:09:48;43.65;;;27.65;;
26698;SDS011;14313;50.892;13.756;2022-10-17T18:12:15;42.10;;;26.85;;
26698;SDS011;14313;50.892;13.756;2022-10-17T18:14:41;39.92;;;25.02;;
26698;SDS011;14313;50.892;13.756;2022-10-17T18:17:06;44.92;;;25.13;;
26698;SDS011;14313;50.892;13.756;2022-10-17T18:19:31;39.38;;;24.30;;
26698;SDS011;14313;50.892;13.756;2022-10-17T18:21:57;39.63;;;23.75;;
26698;SDS011;14313;50.892;13.756;2022-10-17T18:24:22;36.72;;;22.80;;
26698;SDS011;14313;50.892;13.756;2022-10-17T18:26:48;39.15;;;23.50;;
26698;SDS011;14313;50.892;13.756;2022-10-17T18:29:15;35.40;;;23.98;;
26698;SDS011;14313;50.892;13.756;2022-10-17T18:31:40;39.13;;;23.52;;
26698;SDS011;14313;50.892;13.756;2022-10-17T18:34:06;33.63;;;23.05;;
26698;SDS011;14313;50.892;13.756;2022-10-17T18:36:32;37.38;;;24.20;;
26698;SDS011;14313;50.892;13.756;2022-10-17T18:38:58;36.25;;;24.00;;
26698;SDS011;14313;50.892;13.756;2022-10-17T18:41:25;38.20;;;23.45;;
26698;SDS011;14313;50.892;13.756;2022-10-17T18:43:52;39.45;;;22.77;;
26698;SDS011;14313;50.892;13.756;2022-10-17T18:46:28;37.80;;;23.75;;
26698;SDS011;14313;50.892;13.756;2022-10-17T18:48:55;37.58;;;23.98;;
26698;SDS011;14313;50.892;13.756;2022-10-17T18:51:22;35.90;;;23.27;;